Time;durP1;ratioP1;P1;durP2;ratioP2;P2;SDS_P1;SDS_P2;PMS_P1;PMS_P2;Temp;Humidity;BMP_temperature;BMP_pressure;BME280_temperature;BME280_humidity;BME280_pressure;Samples;Min_cycle;Max_cycle;Signal;HPM_P1;HPM_P2
2021/06/14 00:01:02;;;;;;;9.48;5.35;;;8.40;99.90;;;;;;4998713;28;20050;-88
2021/06/14 00:03:29;;;;;;;10.30;5.72;;;8.50;99.90;;;;;;4998855;28;20107;-87
2021/06/14 00:05:56;;;;;;;7.65;4.93;;;8.50;99.90;;;;;;4998935;28;20410;-87
2021/06/14 00:08:25;;;;;;;12.30;6.10;;;8.50;99.90;;;;;;4998718;28;20411;-87
2021/06/14 00:10:54;;;;;;;12.18;5.72;;;8.50;99.90;;;;;;5015917;28;20054;-87
2021/06/14 00:13:22;;;;;;;9.10;5.10;;;8.50;99.90;;;;;;5015975;28;20050;-87
2021/06/14 00:15:50;;;;;;;8.80;4.90;;;8.50;99.90;;;;;;4998183;28;20050;-87
2021/06/14 00:18:18;;;;;;;8.77;5.32;;;8.50;99.90;;;;;;4998469;28;20052;-87
2021/06/14 00:20:53;;;;;;;10.38;5.30;;;8.40;99.90;;;;;;4998718;28;20053;-88
2021/06/14 00:23:21;;;;;;;12.25;5.30;;;8.40;99.90;;;;;;4998720;28;20052;-88
2021/06/14 00:25:49;;;;;;;10.93;6.07;;;8.30;99.90;;;;;;4998359;28;20046;-87
2021/06/14 00:28:17;;;;;;;10.57;6.10;;;8.30;99.90;;;;;;5015298;28;20050;-88
2021/06/14 00:30:45;;;;;;;9.25;5.80;;;8.20;99.90;;;;;;4997606;28;20049;-87
2021/06/14 00:33:14;;;;;;;9.48;6.03;;;8.10;99.90;;;;;;5015222;28;20060;-87
2021/06/14 00:35:43;;;;;;;11.18;6.47;;;8.10;99.90;;;;;;4998000;28;20053;-87
2021/06/14 00:38:10;;;;;;;14.20;6.50;;;8.00;99.90;;;;;;5015402;28;20045;-88
2021/06/14 00:40:36;;;;;;;9.02;6.82;;;8.00;99.90;;;;;;5015322;28;20052;-88
2021/06/14 00:43:05;;;;;;;11.00;7.00;;;7.90;99.90;;;;;;5014815;28;20050;-88
2021/06/14 00:45:35;;;;;;;11.73;6.32;;;7.90;99.90;;;;;;5015070;28;20136;-87
2021/06/14 00:48:04;;;;;;;10.32;6.20;;;7.90;99.90;;;;;;5015138;28;20144;-88
2021/06/14 00:50:46;;;;;;;12.15;7.05;;;7.90;99.90;;;;;;4997849;28;20137;-88
2021/06/14 00:53:21;;;;;;;12.95;6.93;;;7.80;99.90;;;;;;4997575;28;20415;-87
2021/06/14 00:55:48;;;;;;;9.75;6.15;;;7.80;99.90;;;;;;4997732;28;20056;-87
2021/06/14 00:58:16;;;;;;;10.65;7.28;;;7.80;99.90;;;;;;4997771;28;20228;-88
2021/06/14 01:00:44;;;;;;;10.65;6.65;;;7.80;99.90;;;;;;4997979;28;20076;-88
2021/06/14 01:03:11;;;;;;;13.77;6.32;;;7.70;99.90;;;;;;5009995;28;20046;-87
2021/06/14 01:05:42;;;;;;;9.15;6.18;;;7.70;99.90;;;;;;5005867;28;20052;-88
2021/06/14 01:08:10;;;;;;;10.68;6.78;;;7.70;99.90;;;;;;5014613;28;20129;-87
2021/06/14 01:10:39;;;;;;;9.63;6.60;;;7.80;99.90;;;;;;4997351;28;20164;-87
2021/06/14 01:13:22;;;;;;;8.52;6.22;;;7.90;99.90;;;;;;4997320;28;20060;-88
2021/06/14 01:16:23;;;;;;;10.02;6.43;;;7.80;99.90;;;;;;4997495;28;20046;-87
2021/06/14 01:19:19;;;;;;;14.00;6.35;;;7.80;99.90;;;;;;4997341;28;20045;-87
2021/06/14 01:22:07;;;;;;;16.20;6.28;;;7.80;99.90;;;;;;4969861;28;20081;-88
2021/06/14 01:24:53;;;;;;;13.35;6.30;;;7.70;99.90;;;;;;4997109;28;20045;-87
2021/06/14 01:27:58;;;;;;;14.55;6.85;;;7.70;99.90;;;;;;4996958;28;20050;-87
2021/06/14 01:30:32;;;;;;;9.68;6.57;;;7.50;99.90;;;;;;4950719;28;20486;-87
2021/06/14 01:32:59;;;;;;;15.95;7.28;;;7.50;99.90;;;;;;5014149;28;20502;-87
2021/06/14 01:35:32;;;;;;;12.30;6.85;;;7.50;99.90;;;;;;4996479;28;20064;-88
2021/06/14 01:38:01;;;;;;;12.20;6.78;;;7.50;99.90;;;;;;4996926;28;20419;-88
2021/06/14 01:40:29;;;;;;;9.73;6.07;;;7.40;99.90;;;;;;4996843;28;20116;-88
2021/06/14 01:43:00;;;;;;;11.95;6.25;;;7.30;99.90;;;;;;4996234;28;20096;-88
2021/06/14 01:45:29;;;;;;;9.77;6.10;;;7.20;99.90;;;;;;4996428;28;20486;-88
2021/06/14 01:47:58;;;;;;;12.13;7.40;;;7.20;99.90;;;;;;4996556;28;20112;-88
2021/06/14 01:50:27;;;;;;;9.63;7.13;;;7.00;99.90;;;;;;4996561;28;20053;-87
2021/06/14 01:52:56;;;;;;;10.60;6.70;;;7.00;99.90;;;;;;4997005;28;20053;-88
2021/06/14 01:55:23;;;;;;;17.27;7.82;;;7.10;99.90;;;;;;4996441;28;20054;-87
2021/06/14 01:57:51;;;;;;;10.75;6.57;;;7.20;99.90;;;;;;4996510;28;20136;-88
2021/06/14 02:00:23;;;;;;;11.15;7.13;;;7.20;99.90;;;;;;5013611;28;20056;-88
2021/06/14 02:02:52;;;;;;;10.55;6.57;;;7.20;99.90;;;;;;4996489;28;20041;-87
2021/06/14 02:05:25;;;;;;;13.20;6.65;;;7.10;99.90;;;;;;4996294;28;20060;-88
2021/06/14 02:07:52;;;;;;;10.68;6.85;;;7.00;99.90;;;;;;4997159;28;20302;-88
2021/06/14 02:10:22;;;;;;;12.85;7.10;;;7.00;99.90;;;;;;4996583;28;20077;-88
2021/06/14 02:12:50;;;;;;;10.82;7.35;;;7.00;99.90;;;;;;4996791;28;20073;-88
2021/06/14 02:15:17;;;;;;;13.65;6.47;;;6.90;99.90;;;;;;5005196;28;20052;-87
2021/06/14 02:17:46;;;;;;;9.98;6.82;;;6.90;99.90;;;;;;4996663;28;20056;-88
2021/06/14 02:20:14;;;;;;;12.82;7.57;;;6.90;99.90;;;;;;5014903;28;20104;-87
2021/06/14 02:22:41;;;;;;;11.10;7.50;;;6.90;99.90;;;;;;5030979;28;20140;-87
2021/06/14 02:25:10;;;;;;;13.95;8.35;;;6.90;99.90;;;;;;4997882;28;20070;-87
2021/06/14 02:27:38;;;;;;;19.50;9.18;;;6.80;99.90;;;;;;4996614;28;20081;-88
2021/06/14 02:30:12;;;;;;;12.20;8.23;;;6.70;99.90;;;;;;5013663;28;20046;-88
2021/06/14 02:32:39;;;;;;;13.88;8.80;;;6.60;99.90;;;;;;5014171;28;20128;-88
2021/06/14 02:35:08;;;;;;;13.50;7.35;;;6.60;99.90;;;;;;4996339;28;20538;-88
2021/06/14 02:37:38;;;;;;;16.20;8.35;;;6.50;99.90;;;;;;4996023;28;20045;-88
2021/06/14 02:40:08;;;;;;;12.60;8.07;;;6.40;99.90;;;;;;4996162;28;20049;-86
2021/06/14 02:42:37;;;;;;;15.00;8.35;;;6.50;99.90;;;;;;4996494;28;20038;-87
2021/06/14 02:45:06;;;;;;;14.55;8.88;;;6.70;99.90;;;;;;4996071;28;20054;-87
2021/06/14 02:47:34;;;;;;;13.80;7.70;;;6.70;99.90;;;;;;4995838;28;20116;-88
2021/06/14 02:50:05;;;;;;;16.67;7.38;;;6.70;99.90;;;;;;5013054;28;20054;-87
2021/06/14 02:52:33;;;;;;;9.90;7.18;;;6.60;99.90;;;;;;5013014;28;20487;-88
2021/06/14 02:55:13;;;;;;;11.23;7.63;;;6.60;99.90;;;;;;4999920;28;20056;-88
2021/06/14 02:57:45;;;;;;;12.85;7.57;;;6.50;99.90;;;;;;5000187;28;20049;-88
2021/06/14 03:00:13;;;;;;;12.85;7.85;;;6.40;99.90;;;;;;5017302;28;20045;-88
2021/06/14 03:02:40;;;;;;;26.95;9.35;;;6.40;99.90;;;;;;5000136;28;20049;-88
2021/06/14 03:05:08;;;;;;;16.35;8.82;;;6.40;99.90;;;;;;4999875;28;20050;-88
2021/06/14 03:07:36;;;;;;;19.40;11.38;;;6.30;99.90;;;;;;4999587;28;20054;-87
2021/06/14 03:10:05;;;;;;;17.00;11.07;;;6.30;99.90;;;;;;4999534;28;20084;-87
2021/06/14 03:12:32;;;;;;;20.27;9.63;;;6.40;99.90;;;;;;4999430;28;20060;-88
2021/06/14 03:15:06;;;;;;;26.83;11.93;;;6.50;99.90;;;;;;4999373;28;20058;-87
2021/06/14 03:17:35;;;;;;;23.58;9.85;;;6.40;99.90;;;;;;4999977;28;20561;-87
2021/06/14 03:20:06;;;;;;;16.85;9.07;;;6.50;99.90;;;;;;4999612;28;20058;-88
2021/06/14 03:22:32;;;;;;;17.02;8.75;;;6.50;99.90;;;;;;4999556;28;20064;-88
2021/06/14 03:24:59;;;;;;;16.65;8.73;;;6.50;99.90;;;;;;4999547;28;20081;-88
2021/06/14 03:27:27;;;;;;;14.38;8.68;;;6.50;99.90;;;;;;4999158;28;20128;-88
2021/06/14 03:29:54;;;;;;;13.40;8.13;;;6.60;99.90;;;;;;4999025;28;20057;-88
2021/06/14 03:32:21;;;;;;;18.70;8.95;;;6.60;99.90;;;;;;4999480;28;20046;-88
2021/06/14 03:34:48;;;;;;;17.50;9.90;;;6.50;99.90;;;;;;4999493;28;20050;-88
2021/06/14 03:37:15;;;;;;;16.13;10.10;;;6.50;99.90;;;;;;5016512;28;20058;-87
2021/06/14 03:39:42;;;;;;;19.02;10.10;;;6.60;99.90;;;;;;5006119;28;20056;-87
2021/06/14 03:42:09;;;;;;;21.13;9.85;;;6.60;99.90;;;;;;5014633;28;20110;-88
2021/06/14 03:44:36;;;;;;;15.55;10.65;;;6.50;99.90;;;;;;5001141;28;20073;-88
2021/06/14 03:47:03;;;;;;;16.92;9.38;;;6.50;99.90;;;;;;4999907;28;20144;-88
2021/06/14 03:49:30;;;;;;;16.90;10.25;;;6.60;99.90;;;;;;5000293;28;20061;-88
2021/06/14 03:51:57;;;;;;;13.45;9.63;;;6.60;99.90;;;;;;4999092;28;20049;-88
2021/06/14 03:54:24;;;;;;;19.42;10.07;;;6.70;99.90;;;;;;5016043;28;20077;-88
2021/06/14 03:56:51;;;;;;;9.60;8.50;;;6.80;99.90;;;;;;4998954;28;20050;-88
2021/06/14 03:59:18;;;;;;;14.27;8.77;;;6.90;99.90;;;;;;4998602;28;20045;-88
2021/06/14 04:01:45;;;;;;;13.20;8.98;;;7.00;99.90;;;;;;5015979;28;20058;-88
2021/06/14 04:06:58;;;;;;;19.85;9.00;;;7.20;99.90;;;;;;5016137;28;20144;-88
2021/06/14 04:09:26;;;;;;;19.42;9.10;;;7.20;99.90;;;;;;5015941;28;20072;-88
2021/06/14 04:11:53;;;;;;;15.10;9.02;;;7.10;99.90;;;;;;5015995;28;20089;-88
2021/06/14 04:14:20;;;;;;;14.18;9.27;;;7.10;99.90;;;;;;5015962;28;20411;-88
2021/06/14 04:16:46;;;;;;;14.68;9.25;;;7.20;99.90;;;;;;5015756;28;20143;-87
2021/06/14 04:19:13;;;;;;;14.88;9.63;;;7.30;99.90;;;;;;5015271;28;20046;-87
2021/06/14 04:21:40;;;;;;;15.82;9.45;;;7.50;99.90;;;;;;4998641;28;20142;-88
2021/06/14 04:24:07;;;;;;;20.40;9.27;;;7.50;99.90;;;;;;4998510;28;20414;-88
2021/06/14 04:26:34;;;;;;;17.98;9.50;;;7.60;99.90;;;;;;4998303;28;20050;-88
2021/06/14 04:29:01;;;;;;;13.98;8.80;;;7.70;99.90;;;;;;4998375;28;20510;-88
2021/06/14 04:31:28;;;;;;;14.57;8.20;;;7.70;99.90;;;;;;4998169;28;20054;-87
2021/06/14 04:33:55;;;;;;;15.55;9.48;;;7.80;99.90;;;;;;4998223;28;20122;-88
2021/06/14 04:36:22;;;;;;;17.23;8.18;;;7.90;99.90;;;;;;4998297;28;20427;-88
2021/06/14 04:38:49;;;;;;;12.13;8.35;;;8.10;99.90;;;;;;4998359;28;20048;-87
2021/06/14 04:41:15;;;;;;;15.15;8.60;;;8.20;99.90;;;;;;4997998;28;20049;-87
2021/06/14 04:43:42;;;;;;;12.85;8.57;;;8.30;99.90;;;;;;5015558;28;20078;-87
2021/06/14 04:46:09;;;;;;;14.93;8.35;;;8.40;99.90;;;;;;4998235;28;20061;-87
2021/06/14 04:48:36;;;;;;;10.18;8.32;;;8.50;99.90;;;;;;4997376;28;20073;-88
2021/06/14 04:51:03;;;;;;;19.85;11.77;;;8.60;99.90;;;;;;4998511;28;20085;-87
2021/06/14 04:53:30;;;;;;;12.25;7.75;;;9.20;99.90;;;;;;5001762;28;20058;-87
2021/06/14 04:55:57;;;;;;;7.47;5.50;;;10.10;99.90;;;;;;5015254;28;20057;-87
2021/06/14 04:58:24;;;;;;;7.75;4.80;;;10.40;99.90;;;;;;5011781;28;20038;-87
2021/06/14 05:00:51;;;;;;;12.07;4.35;;;10.60;99.90;;;;;;5005727;28;20048;-87
2021/06/14 05:03:17;;;;;;;7.55;4.40;;;10.50;99.90;;;;;;4997739;28;20148;-87
2021/06/14 05:05:44;;;;;;;5.78;3.85;;;10.70;99.90;;;;;;4997455;28;20080;-87
2021/06/14 05:08:12;;;;;;;12.98;3.40;;;11.50;99.90;;;;;;5014969;28;20081;-87
2021/06/14 05:10:39;;;;;;;9.80;3.55;;;12.80;99.90;;;;;;5014431;28;20578;-87
2021/06/14 05:13:06;;;;;;;7.38;3.20;;;14.40;99.90;;;;;;4997232;28;20506;-87
2021/06/14 05:15:33;;;;;;;5.40;2.80;;;15.50;99.90;;;;;;4996967;28;20128;-88
2021/06/14 05:18:00;;;;;;;3.83;2.50;;;17.20;99.90;;;;;;4997433;28;20137;-88
2021/06/14 05:20:30;;;;;;;4.82;2.40;;;18.20;99.90;;;;;;4997377;28;20078;-88
2021/06/14 05:22:57;;;;;;;5.25;2.60;;;19.10;99.90;;;;;;5013767;28;20129;-87
2021/06/14 05:25:25;;;;;;;4.80;2.20;;;20.20;99.90;;;;;;4996945;28;20060;-87
2021/06/14 05:27:52;;;;;;;4.18;2.05;;;21.30;99.90;;;;;;4998030;28;20054;-88
2021/06/14 05:30:19;;;;;;;4.88;1.88;;;21.80;99.90;;;;;;4997038;28;20129;-88
2021/06/14 05:32:52;;;;;;;4.50;2.20;;;22.80;95.70;;;;;;4998076;28;20056;-88
2021/06/14 05:35:20;;;;;;;3.45;2.13;;;23.10;93.60;;;;;;5014117;28;20042;-88
2021/06/14 05:37:48;;;;;;;3.50;2.50;;;23.60;91.60;;;;;;4996823;28;20133;-88
2021/06/14 05:40:17;;;;;;;2.20;2.00;;;23.20;91.00;;;;;;5014152;28;20053;-88
2021/06/14 05:42:45;;;;;;;2.63;1.98;;;23.80;90.10;;;;;;4997208;28;20060;-89
2021/06/14 05:45:13;;;;;;;3.83;2.10;;;24.50;85.60;;;;;;5014453;28;20056;-88
2021/06/14 05:47:40;;;;;;;3.08;2.38;;;24.30;84.00;;;;;;4997338;28;20132;-89
2021/06/14 05:50:07;;;;;;;4.13;2.40;;;24.60;81.50;;;;;;4996909;28;20058;-88
2021/06/14 05:52:34;;;;;;;3.63;2.10;;;24.70;81.20;;;;;;5014295;28;20058;-89
2021/06/14 05:55:01;;;;;;;5.40;2.60;;;25.30;79.30;;;;;;4997141;28;20057;-89
2021/06/14 05:57:28;;;;;;;7.85;2.50;;;24.30;82.20;;;;;;5014436;28;20050;-88
2021/06/14 05:59:54;;;;;;;14.95;3.55;;;25.30;78.20;;;;;;5014606;28;20483;-89
2021/06/14 06:02:21;;;;;;;8.20;3.30;;;25.50;75.20;;;;;;4997455;28;20120;-89
2021/06/14 06:04:48;;;;;;;13.82;3.97;;;24.50;76.60;;;;;;5014311;28;20056;-90
2021/06/14 06:07:15;;;;;;;15.77;3.50;;;23.80;77.50;;;;;;4996164;28;20060;-90
2021/06/14 06:09:43;;;;;;;15.38;3.95;;;24.20;79.40;;;;;;4996614;28;20140;-89
2021/06/14 06:12:10;;;;;;;7.53;3.00;;;24.00;77.40;;;;;;4996681;28;20054;-90
2021/06/14 06:14:37;;;;;;;6.80;3.03;;;24.10;78.40;;;;;;4998777;28;20054;-90
2021/06/14 06:17:04;;;;;;;7.45;2.72;;;24.50;78.00;;;;;;5014557;28;20057;-90
2021/06/14 06:19:31;;;;;;;7.88;3.53;;;25.60;75.70;;;;;;5004288;28;20137;-88
2021/06/14 06:21:57;;;;;;;23.83;8.35;;;27.20;71.40;;;;;;4998006;28;20491;-87
2021/06/14 06:24:24;;;;;;;38.60;10.30;;;27.30;69.20;;;;;;4996551;28;20050;-86
2021/06/14 06:26:51;;;;;;;46.60;13.05;;;27.80;67.30;;;;;;4996711;28;20141;-90
2021/06/14 06:29:17;;;;;;;30.40;9.35;;;27.30;67.70;;;;;;5002354;28;20054;-89
2021/06/14 06:31:44;;;;;;;28.67;8.75;;;26.70;69.70;;;;;;5003205;28;20064;-89
2021/06/14 06:34:11;;;;;;;24.83;7.47;;;27.20;70.20;;;;;;5003029;28;20088;-87
2021/06/14 06:36:41;;;;;;;25.58;7.97;;;28.60;65.70;;;;;;5003505;28;20057;-87
2021/06/14 06:39:08;;;;;;;14.70;6.53;;;30.20;62.20;;;;;;5002842;28;20081;-86
2021/06/14 06:41:34;;;;;;;15.30;4.80;;;31.40;59.20;;;;;;5002992;28;20121;-86
2021/06/14 06:44:01;;;;;;;7.60;3.55;;;32.40;56.40;;;;;;5002783;28;20046;-85
2021/06/14 06:46:28;;;;;;;12.10;4.43;;;32.30;55.50;;;;;;5002861;28;20053;-86
2021/06/14 06:48:55;;;;;;;31.85;6.68;;;32.40;55.90;;;;;;5002576;28;20057;-87
2021/06/14 06:51:21;;;;;;;25.55;7.57;;;32.20;54.90;;;;;;5002493;28;20142;-87
2021/06/14 06:53:48;;;;;;;22.08;7.45;;;32.10;54.90;;;;;;5002846;28;20046;-87
2021/06/14 06:56:15;;;;;;;24.65;6.63;;;31.10;55.50;;;;;;5003119;28;20049;-89
2021/06/14 06:58:42;;;;;;;21.90;6.57;;;31.30;55.00;;;;;;5003152;28;20141;-87
2021/06/14 07:01:09;;;;;;;11.30;4.55;;;30.60;56.30;;;;;;5002630;28;20062;-87
2021/06/14 07:03:36;;;;;;;18.70;4.97;;;30.10;56.80;;;;;;5002887;28;20050;-87
2021/06/14 07:06:03;;;;;;;13.02;3.90;;;30.50;57.50;;;;;;5003032;28;20562;-86
2021/06/14 07:08:29;;;;;;;17.00;4.72;;;30.20;58.60;;;;;;5003186;28;20129;-87
2021/06/14 07:10:56;;;;;;;15.43;4.55;;;30.70;57.70;;;;;;5002941;28;20052;-87
2021/06/14 07:13:23;;;;;;;8.73;3.78;;;30.50;56.70;;;;;;5002965;28;20053;-88
2021/06/14 07:15:50;;;;;;;10.13;3.80;;;31.60;53.60;;;;;;5003126;28;20109;-88
2021/06/14 07:18:17;;;;;;;14.95;4.15;;;32.70;54.30;;;;;;5002952;28;20054;-88
2021/06/14 07:20:44;;;;;;;5.20;3.00;;;32.60;53.30;;;;;;5003741;28;20046;-87
2021/06/14 07:23:11;;;;;;;8.38;2.97;;;32.50;52.10;;;;;;5002635;28;20475;-89
2021/06/14 07:25:37;;;;;;;5.53;3.00;;;33.60;51.60;;;;;;5002859;28;20046;-89
2021/06/14 07:28:05;;;;;;;9.88;2.95;;;32.60;51.10;;;;;;5002051;28;20125;-86
2021/06/14 07:30:33;;;;;;;4.97;2.60;;;31.70;51.30;;;;;;5002821;28;20129;-87
2021/06/14 07:33:01;;;;;;;6.18;2.65;;;31.30;52.40;;;;;;5004180;28;20053;-86
2021/06/14 07:35:32;;;;;;;6.35;2.95;;;31.30;51.90;;;;;;5018514;28;20041;-88
2021/06/14 07:38:00;;;;;;;7.13;3.15;;;30.50;53.20;;;;;;5018615;28;20084;-87
2021/06/14 07:40:28;;;;;;;7.88;3.10;;;30.50;53.50;;;;;;5000902;28;20050;-87
2021/06/14 07:42:55;;;;;;;9.55;2.97;;;31.00;53.50;;;;;;5003623;28;20081;-88
2021/06/14 07:45:24;;;;;;;7.32;2.80;;;31.90;52.50;;;;;;4999062;28;20056;-87
2021/06/14 07:47:54;;;;;;;6.60;2.45;;;32.60;51.70;;;;;;4999225;28;20154;-88
2021/06/14 07:50:21;;;;;;;4.85;2.97;;;32.10;51.50;;;;;;4999404;28;20054;-88
2021/06/14 07:52:49;;;;;;;9.52;3.10;;;32.20;51.60;;;;;;4998959;28;20071;-87
2021/06/14 07:55:15;;;;;;;9.30;3.40;;;32.10;51.20;;;;;;4999144;28;20045;-89
2021/06/14 07:57:42;;;;;;;6.72;2.90;;;32.00;49.90;;;;;;4999479;28;20045;-88
2021/06/14 08:00:10;;;;;;;5.95;2.75;;;32.00;51.30;;;;;;4999371;28;20479;-87
2021/06/14 08:02:40;;;;;;;6.30;2.90;;;32.00;51.30;;;;;;4999578;28;20073;-88
2021/06/14 08:05:09;;;;;;;5.43;3.80;;;33.40;50.70;;;;;;4999424;28;20132;-89
2021/06/14 08:07:36;;;;;;;4.95;3.08;;;33.60;50.60;;;;;;4999403;28;20049;-88
2021/06/14 08:10:07;;;;;;;5.88;2.55;;;34.50;49.50;;;;;;4999525;28;20129;-90
2021/06/14 08:12:37;;;;;;;6.88;3.03;;;34.10;48.20;;;;;;4999249;28;20473;-88
2021/06/14 08:15:04;;;;;;;7.32;3.35;;;34.00;48.20;;;;;;4999602;28;20499;-88
2021/06/14 08:17:31;;;;;;;6.28;2.63;;;33.50;48.30;;;;;;4999415;28;20071;-90
2021/06/14 08:20:10;;;;;;;8.30;2.78;;;33.70;48.30;;;;;;4999304;28;20128;-88
2021/06/14 08:25:23;;;;;;;4.32;2.35;;;33.90;48.30;;;;;;5015346;28;20050;-87
2021/06/14 08:27:50;;;;;;;5.10;2.92;;;34.50;48.80;;;;;;4998833;28;20107;-88
2021/06/14 08:30:22;;;;;;;8.27;2.70;;;35.40;48.10;;;;;;4998902;28;20054;-90
2021/06/14 08:32:50;;;;;;;5.70;2.92;;;35.50;46.90;;;;;;5016242;28;20056;-88
2021/06/14 08:35:20;;;;;;;4.82;2.67;;;35.30;46.60;;;;;;4998734;28;20042;-88
2021/06/14 08:37:48;;;;;;;3.58;2.75;;;34.90;45.90;;;;;;4999161;28;20054;-87
2021/06/14 08:40:20;;;;;;;4.90;2.53;;;34.10;46.80;;;;;;4998297;28;20060;-87
2021/06/14 08:42:47;;;;;;;5.05;2.50;;;33.30;47.10;;;;;;5015847;28;20054;-87
2021/06/14 08:45:16;;;;;;;5.13;2.42;;;34.20;47.20;;;;;;4998294;28;20184;-88
2021/06/14 08:47:45;;;;;;;4.75;2.22;;;36.50;44.40;;;;;;4998157;28;20169;-88
2021/06/14 08:50:15;;;;;;;4.45;2.20;;;37.20;44.50;;;;;;4998380;28;20080;-88
2021/06/14 08:52:42;;;;;;;4.93;2.90;;;39.50;43.70;;;;;;4999034;28;20050;-88
2021/06/14 08:55:12;;;;;;;5.70;2.30;;;40.50;41.80;;;;;;5017881;28;20044;-88
2021/06/14 08:57:39;;;;;;;3.45;2.50;;;41.00;40.70;;;;;;5010066;28;20081;-87
2021/06/14 09:00:14;;;;;;;3.85;2.60;;;38.60;40.30;;;;;;4998417;28;20069;-87
2021/06/14 09:02:42;;;;;;;5.30;2.67;;;37.70;41.10;;;;;;4998476;28;20570;-89
2021/06/14 09:05:10;;;;;;;6.22;2.17;;;37.50;41.40;;;;;;4997683;28;20046;-89
2021/06/14 09:07:39;;;;;;;3.17;2.42;;;39.00;41.50;;;;;;4998003;28;20058;-87
2021/06/14 09:10:07;;;;;;;5.82;2.60;;;39.60;40.20;;;;;;5015074;28;20050;-89
2021/06/14 09:12:40;;;;;;;6.60;2.38;;;39.70;40.60;;;;;;5014787;28;20144;-90
2021/06/14 09:15:10;;;;;;;5.05;2.30;;;41.30;40.20;;;;;;4997366;28;20045;-91
2021/06/14 09:17:37;;;;;;;3.60;2.25;;;42.40;38.20;;;;;;5014442;28;20057;-91
2021/06/14 09:20:13;;;;;;;3.85;2.40;;;41.40;37.90;;;;;;4997659;28;20131;-88
2021/06/14 09:22:40;;;;;;;4.28;2.33;;;40.40;39.10;;;;;;4997810;28;20137;-88
2021/06/14 09:25:11;;;;;;;4.78;2.35;;;40.70;38.40;;;;;;4997412;28;20077;-89
2021/06/14 09:27:40;;;;;;;3.42;2.42;;;40.90;38.50;;;;;;4997599;28;20077;-90
2021/06/14 09:30:27;;;;;;;4.57;2.30;;;39.50;39.40;;;;;;4997286;28;20057;-90
2021/06/14 09:32:59;;;;;;;3.90;2.50;;;38.30;39.40;;;;;;4997064;28;20136;-89
2021/06/14 09:35:32;;;;;;;4.70;2.28;;;39.30;39.40;;;;;;4996919;28;20495;-88
2021/06/14 09:38:11;;;;;;;4.30;2.53;;;37.70;40.30;;;;;;4997299;28;20053;-88
2021/06/14 09:40:46;;;;;;;3.25;1.83;;;38.30;40.40;;;;;;5014215;28;20056;-89
2021/06/14 09:43:37;;;;;;;5.97;2.60;;;39.90;40.30;;;;;;4997193;28;20054;-88
2021/06/14 09:46:16;;;;;;;4.05;2.30;;;41.30;38.20;;;;;;4997536;28;20056;-90
2021/06/14 09:48:43;;;;;;;6.78;2.35;;;40.00;38.00;;;;;;4997351;28;20100;-90
2021/06/14 09:51:09;;;;;;;6.32;2.75;;;40.20;38.60;;;;;;4996492;28;20060;-89
2021/06/14 09:53:48;;;;;;;4.75;2.33;;;40.70;38.20;;;;;;4996614;28;20072;-88
2021/06/14 09:56:19;;;;;;;4.60;2.15;;;40.60;38.50;;;;;;4996686;28;20080;-92
2021/06/14 09:58:48;;;;;;;10.65;2.58;;;40.60;37.50;;;;;;5000728;28;20081;-89
2021/06/14 10:01:26;;;;;;;4.25;2.17;;;40.00;38.10;;;;;;4999107;28;20046;-90
2021/06/14 10:03:54;;;;;;;8.40;2.70;;;39.70;38.00;;;;;;5005892;28;20050;-89
2021/06/14 10:06:36;;;;;;;6.97;2.17;;;39.80;38.40;;;;;;5007009;28;20053;-91
2021/06/14 10:09:09;;;;;;;2.75;2.38;;;39.90;37.50;;;;;;4997288;28;20054;-90
2021/06/14 10:11:37;;;;;;;23.73;5.05;;;39.90;37.30;;;;;;5007340;28;20515;-89
2021/06/14 10:14:13;;;;;;;2.42;1.95;;;40.30;38.20;;;;;;5014234;28;20122;-90
2021/06/14 10:16:41;;;;;;;5.72;2.47;;;39.70;36.50;;;;;;5007786;28;20153;-89
2021/06/14 10:19:10;;;;;;;3.40;2.10;;;40.10;37.10;;;;;;4996884;28;20140;-89
2021/06/14 10:21:39;;;;;;;3.22;2.00;;;39.00;37.70;;;;;;4996925;28;20498;-90
2021/06/14 10:24:10;;;;;;;2.75;1.85;;;39.00;38.10;;;;;;5001110;28;20056;-86
2021/06/14 10:26:39;;;;;;;3.13;1.90;;;40.10;37.90;;;;;;5007367;28;20409;-89
2021/06/14 10:29:09;;;;;;;3.92;1.88;;;42.30;36.90;;;;;;5015861;28;20092;-89
2021/06/14 10:31:36;;;;;;;4.22;1.92;;;42.70;35.70;;;;;;5016028;28;20053;-88
2021/06/14 10:34:04;;;;;;;2.92;1.58;;;43.50;34.00;;;;;;5015758;28;20490;-89
2021/06/14 10:36:31;;;;;;;8.00;2.10;;;44.20;34.80;;;;;;5015776;28;20132;-87
2021/06/14 10:39:00;;;;;;;2.00;1.80;;;43.90;34.00;;;;;;5015987;28;20064;-88
2021/06/14 10:41:28;;;;;;;6.07;2.25;;;42.00;34.60;;;;;;5016069;28;20110;-89
2021/06/14 10:43:55;;;;;;;7.53;2.20;;;41.80;35.70;;;;;;5016228;28;20137;-88
2021/06/14 10:46:25;;;;;;;4.32;2.00;;;41.40;35.90;;;;;;5015685;28;20064;-88
2021/06/14 10:48:57;;;;;;;10.85;2.42;;;41.90;34.80;;;;;;5015185;28;20088;-89
2021/06/14 10:51:25;;;;;;;3.13;1.77;;;42.50;35.40;;;;;;5015837;28;20084;-88
2021/06/14 10:53:52;;;;;;;1.75;1.63;;;43.60;35.00;;;;;;5015622;28;20045;-89
2021/06/14 10:56:22;;;;;;;4.10;1.90;;;43.00;35.80;;;;;;5011753;28;20122;-91
2021/06/14 10:58:56;;;;;;;3.08;1.63;;;42.60;35.20;;;;;;4995941;28;20049;-90
2021/06/14 11:01:35;;;;;;;3.67;1.60;;;41.10;36.40;;;;;;5006298;28;20066;-89
2021/06/14 11:04:04;;;;;;;4.03;2.00;;;41.00;35.90;;;;;;5015640;28;20050;-87
2021/06/14 11:06:33;;;;;;;3.42;1.63;;;40.20;36.80;;;;;;5015831;28;20052;-89
2021/06/14 11:09:11;;;;;;;3.17;2.05;;;39.90;38.70;;;;;;5017313;28;20053;-89
2021/06/14 11:11:53;;;;;;;1.92;1.63;;;39.50;37.80;;;;;;5016145;28;20137;-88
2021/06/14 11:14:44;;;;;;;2.70;1.80;;;39.60;37.50;;;;;;5016340;28;20478;-88
2021/06/14 11:17:19;;;;;;;2.08;1.70;;;38.50;37.90;;;;;;5019095;28;20136;-87
2021/06/14 11:19:48;;;;;;;2.33;1.60;;;38.70;38.30;;;;;;5019865;28;20056;-87
2021/06/14 11:22:17;;;;;;;4.22;2.00;;;37.20;38.70;;;;;;5019068;28;20049;-89
2021/06/14 11:24:45;;;;;;;4.28;2.03;;;36.70;39.70;;;;;;5019206;28;20136;-88
2021/06/14 11:27:13;;;;;;;7.30;2.22;;;36.60;40.40;;;;;;5019359;28;20111;-87
2021/06/14 11:29:51;;;;;;;5.22;2.20;;;35.00;41.00;;;;;;5019685;28;20051;-87
2021/06/14 11:32:20;;;;;;;3.10;1.70;;;34.30;42.90;;;;;;5025208;28;20136;-89
2021/06/14 11:34:53;;;;;;;2.85;1.75;;;34.00;43.00;;;;;;5035375;28;20081;-88
2021/06/14 11:37:21;;;;;;;3.15;1.90;;;33.00;44.90;;;;;;5019466;28;20103;-86
2021/06/14 11:40:00;;;;;;;2.50;1.67;;;33.00;44.20;;;;;;5019301;28;20111;-94
2021/06/14 11:42:29;;;;;;;2.35;2.00;;;32.40;44.40;;;;;;5010630;28;20489;-88
2021/06/14 11:44:59;;;;;;;2.28;1.50;;;32.60;45.80;;;;;;4999203;28;20054;-88
2021/06/14 11:47:28;;;;;;;3.33;1.73;;;33.00;44.90;;;;;;4999199;28;20058;-87
2021/06/14 11:50:00;;;;;;;3.08;1.73;;;33.00;45.40;;;;;;4999100;28;20057;-88
2021/06/14 11:52:40;;;;;;;4.60;1.80;;;32.50;45.60;;;;;;4999410;28;20088;-87
2021/06/14 11:55:10;;;;;;;4.97;1.80;;;31.80;46.30;;;;;;4999131;28;20063;-90
2021/06/14 11:58:01;;;;;;;3.55;1.65;;;31.10;48.00;;;;;;5016520;28;20050;-87
2021/06/14 12:00:29;;;;;;;2.80;1.63;;;30.40;47.90;;;;;;4999076;28;20061;-87
2021/06/14 12:02:57;;;;;;;3.38;1.75;;;30.50;47.70;;;;;;5013044;28;20057;-91
2021/06/14 12:05:33;;;;;;;2.42;1.65;;;30.40;48.00;;;;;;5018725;28;20049;-91
2021/06/14 12:08:07;;;;;;;2.08;1.88;;;30.20;48.10;;;;;;5018249;28;20065;-89
2021/06/14 12:10:34;;;;;;;5.78;2.15;;;30.00;48.80;;;;;;5035616;28;20137;-89
2021/06/14 12:13:22;;;;;;;3.70;1.85;;;29.90;49.70;;;;;;5021094;28;20052;-89
2021/06/14 12:15:51;;;;;;;4.88;1.92;;;29.90;48.80;;;;;;5022028;28;20053;-91
2021/06/14 12:18:19;;;;;;;2.75;1.70;;;29.70;49.80;;;;;;5019951;28;20056;-88
2021/06/14 12:20:58;;;;;;;2.55;2.00;;;29.30;49.10;;;;;;5019931;28;20057;-89
2021/06/14 12:23:31;;;;;;;3.88;1.90;;;29.10;49.90;;;;;;5019909;28;20061;-87
2021/06/14 12:25:58;;;;;;;3.30;1.88;;;28.90;50.20;;;;;;5018968;28;20136;-91
2021/06/14 12:28:25;;;;;;;4.55;2.05;;;28.60;50.00;;;;;;5018941;28;20045;-90
2021/06/14 12:31:04;;;;;;;5.93;1.60;;;28.30;50.60;;;;;;5018456;28;20111;-87
2021/06/14 12:33:33;;;;;;;4.05;1.77;;;28.10;51.80;;;;;;5018364;28;20071;-89
2021/06/14 12:36:01;;;;;;;3.60;1.65;;;28.20;53.00;;;;;;5018405;28;20054;-89
2021/06/14 12:38:31;;;;;;;3.58;1.63;;;28.40;53.20;;;;;;5018139;28;20132;-88
2021/06/14 12:41:00;;;;;;;4.47;1.75;;;28.60;52.40;;;;;;5018822;28;20128;-95
2021/06/14 12:43:35;;;;;;;2.72;2.05;;;28.40;51.20;;;;;;5018797;28;20057;-89
2021/06/14 12:46:03;;;;;;;5.80;2.10;;;28.20;52.50;;;;;;5018493;28;20056;-91
2021/06/14 12:48:32;;;;;;;6.18;2.03;;;28.20;53.50;;;;;;5021563;28;20065;-92
2021/06/14 12:50:59;;;;;;;8.02;2.35;;;28.20;52.80;;;;;;5020926;28;20049;-87
2021/06/14 12:53:28;;;;;;;3.15;1.55;;;28.10;51.80;;;;;;5035510;28;20129;-88
2021/06/14 12:55:57;;;;;;;3.35;2.05;;;28.10;52.30;;;;;;5022604;28;20045;-87
2021/06/14 12:58:26;;;;;;;4.65;1.77;;;28.10;52.80;;;;;;5018129;28;20049;-89
2021/06/14 13:00:59;;;;;;;2.83;1.85;;;28.00;52.10;;;;;;5017512;28;20041;-87
2021/06/14 13:03:27;;;;;;;3.92;2.10;;;27.80;52.30;;;;;;5017492;28;20549;-88